createdAt,value
2022-10-14T00:06:56.002Z,2.10
2022-10-14T00:17:05.396Z,1.80
2022-10-14T00:27:12.721Z,1.98
2022-10-14T00:37:41.887Z,2.10
2022-10-14T00:47:49.193Z,2.30
2022-10-14T00:57:58.041Z,2.08
2022-10-14T01:08:12.246Z,2.10
2022-10-14T01:18:39.330Z,2.15
2022-10-14T01:28:53.278Z,1.83
2022-10-14T01:39:08.375Z,2.20
2022-10-14T01:49:18.969Z,1.83
2022-10-14T01:59:29.185Z,1.80
2022-10-14T02:10:06.151Z,2.20
2022-10-14T02:45:29.033Z,2.40
2022-10-14T02:55:36.394Z,2.30
2022-10-14T03:05:47.492Z,1.90
2022-10-14T03:15:57.218Z,1.70
2022-10-14T03:26:13.835Z,2.30
2022-10-14T03:36:26.088Z,2.17
2022-10-14T03:46:37.694Z,2.17
2022-10-14T03:56:45.366Z,2.25
2022-10-14T04:06:55.989Z,2.25
2022-10-14T04:17:03.680Z,2.33
2022-10-14T04:27:13.517Z,2.50
2022-10-14T04:37:40.653Z,2.40
2022-10-14T04:47:59.876Z,2.45
2022-10-14T04:58:07.569Z,2.47
2022-10-14T05:08:22.226Z,2.72
2022-10-14T05:18:34.270Z,2.65
2022-10-14T05:28:47.739Z,2.80
2022-10-14T05:38:59.708Z,3.45
2022-10-14T05:49:16.482Z,3.20
2022-10-14T05:59:24.384Z,2.97
2022-10-14T06:09:36.412Z,3.20
2022-10-14T06:19:44.084Z,3.13
2022-10-14T06:29:52.731Z,3.47
2022-10-14T06:39:59.721Z,3.42
2022-10-14T06:50:09.006Z,3.55
2022-10-14T07:00:16.888Z,4.20
2022-10-14T07:10:25.775Z,4.22
2022-10-14T07:20:33.281Z,4.18
2022-10-14T07:30:42.101Z,3.92
2022-10-14T07:40:49.120Z,3.63
2022-10-14T07:50:58.555Z,3.50
2022-10-14T08:01:05.672Z,3.90
2022-10-14T08:11:16.061Z,3.85
2022-10-14T08:21:24.264Z,3.92
2022-10-14T08:31:33.303Z,3.72
2022-10-14T08:41:57.324Z,3.80
2022-10-14T08:52:11.037Z,3.88
2022-10-14T09:02:32.671Z,3.67
2022-10-14T09:12:44.766Z,4.47
2022-10-14T09:23:04.457Z,3.95
2022-10-14T09:33:21.643Z,3.58
2022-10-14T09:43:30.398Z,3.40
2022-10-14T09:53:46.147Z,3.47
2022-10-14T10:03:54.846Z,3.55
2022-10-14T10:14:18.073Z,3.70
2022-10-14T10:24:30.177Z,3.58
2022-10-14T10:35:09.557Z,3.70
2022-10-14T10:45:35.594Z,3.90
2022-10-14T10:55:51.836Z,3.72
2022-10-14T11:06:08.688Z,3.17
2022-10-14T11:16:24.422Z,3.65
2022-10-14T11:27:01.471Z,4.55
2022-10-14T11:37:16.333Z,3.72
2022-10-14T11:47:28.609Z,4.07
2022-10-14T11:57:40.755Z,3.80
2022-10-14T12:07:57.098Z,3.50
2022-10-14T12:18:04.667Z,3.97
2022-10-14T12:28:22.707Z,4.40
2022-10-14T12:38:32.335Z,3.88
2022-10-14T12:48:48.868Z,3.90
2022-10-14T12:59:02.431Z,4.13
2022-10-14T13:09:44.165Z,3.80
2022-10-14T13:19:51.892Z,4.10
2022-10-14T13:30:08.629Z,4.50
2022-10-14T13:40:28.400Z,4.18
2022-10-14T13:50:40.552Z,4.40
2022-10-14T14:00:55.912Z,4.18
2022-10-14T14:11:23.109Z,4.13
2022-10-14T14:21:31.916Z,4.07
2022-10-14T14:32:05.952Z,3.83
2022-10-14T14:42:15.497Z,3.70
2022-10-14T14:52:26.999Z,3.40
2022-10-14T15:02:36.481Z,3.97
2022-10-14T15:12:57.777Z,3.55
2022-10-14T15:23:05.287Z,3.20
2022-10-14T15:33:23.075Z,3.22
2022-10-14T15:55:30.597Z,3.70
2022-10-14T16:05:39.640Z,3.85
2022-10-14T16:15:53.295Z,5.05
2022-10-14T16:26:34.766Z,5.53
2022-10-14T16:37:09.013Z,5.30
2022-10-14T16:47:29.246Z,4.95
2022-10-14T16:58:10.550Z,5.75
2022-10-14T17:08:24.861Z,5.20
2022-10-14T17:18:38.268Z,5.75
2022-10-14T17:28:48.723Z,4.60
2022-10-14T17:38:58.572Z,5.18
2022-10-14T17:49:09.071Z,4.65
2022-10-14T17:59:18.508Z,4.35
2022-10-14T18:09:27.822Z,4.28
2022-10-14T18:19:36.786Z,4.57
2022-10-14T18:29:49.936Z,3.90
2022-10-14T18:40:13.497Z,4.88
2022-10-14T18:50:38.461Z,3.83
2022-10-14T19:01:00.192Z,4.50
2022-10-14T19:11:18.057Z,4.68
2022-10-14T19:21:31.269Z,3.90
2022-10-14T19:31:46.434Z,4.07
2022-10-14T19:42:05.375Z,3.50
2022-10-14T19:52:14.078Z,3.75
2022-10-14T20:02:29.581Z,3.45
2022-10-14T20:12:40.030Z,4.70
2022-10-14T20:23:07.949Z,5.05
2022-10-14T20:33:26.482Z,4.60
2022-10-14T20:43:35.786Z,3.97
2022-10-14T21:05:23.202Z,3.00
2022-10-14T21:16:00.892Z,2.95
2022-10-14T21:26:16.293Z,2.88
2022-10-14T21:36:25.064Z,3.20
2022-10-14T21:46:46.881Z,2.72
2022-10-14T22:07:19.012Z,2.97
2022-10-14T22:17:28.884Z,2.67
2022-10-14T22:27:53.611Z,3.97
2022-10-14T22:38:11.420Z,5.88
2022-10-14T22:48:32.323Z,6.57
2022-10-14T22:59:22.039Z,5.97
2022-10-14T23:09:49.582Z,6.45
2022-10-14T23:20:03.207Z,8.23
2022-10-14T23:30:19.754Z,8.77
2022-10-14T23:40:31.881Z,4.80
2022-10-14T23:50:47.591Z,4.10
